sensor_id;sensor_type;location;lat;lon;timestamp;temperature;humidity
12180;DHT22;6153;51.490;6.586;2022-07-29T00:00:10;19.30;99.90
12180;DHT22;6153;51.490;6.586;2022-07-29T00:03:11;19.30;99.90
12180;DHT22;6153;51.490;6.586;2022-07-29T00:06:12;19.30;99.90
12180;DHT22;6153;51.490;6.586;2022-07-29T00:09:12;19.30;99.90
12180;DHT22;6153;51.490;6.586;2022-07-29T00:12:13;19.20;99.90
12180;DHT22;6153;51.490;6.586;2022-07-29T00:15:13;19.20;99.90
12180;DHT22;6153;51.490;6.586;2022-07-29T00:18:14;19.20;99.90
12180;DHT22;6153;51.490;6.586;2022-07-29T00:21:14;19.20;99.90
12180;DHT22;6153;51.490;6.586;2022-07-29T00:24:15;19.20;99.90
12180;DHT22;6153;51.490;6.586;2022-07-29T00:27:16;19.10;99.90
12180;DHT22;6153;51.490;6.586;2022-07-29T00:30:16;19.10;99.90
12180;DHT22;6153;51.490;6.586;2022-07-29T00:33:17;19.10;99.90
12180;DHT22;6153;51.490;6.586;2022-07-29T00:36:18;19.10;99.90
12180;DHT22;6153;51.490;6.586;2022-07-29T00:39:18;19.10;99.90
12180;DHT22;6153;51.490;6.586;2022-07-29T00:42:19;19.00;99.90
12180;DHT22;6153;51.490;6.586;2022-07-29T00:45:20;19.00;99.90
12180;DHT22;6153;51.490;6.586;2022-07-29T00:48:22;19.00;99.90
12180;DHT22;6153;51.490;6.586;2022-07-29T00:51:22;19.00;99.90
12180;DHT22;6153;51.490;6.586;2022-07-29T00:54:24;18.90;99.90
12180;DHT22;6153;51.490;6.586;2022-07-29T00:57:26;18.90;99.90
12180;DHT22;6153;51.490;6.586;2022-07-29T01:00:28;18.90;99.90
12180;DHT22;6153;51.490;6.586;2022-07-29T01:03:28;18.80;99.90
12180;DHT22;6153;51.490;6.586;2022-07-29T01:06:29;18.80;99.90
12180;DHT22;6153;51.490;6.586;2022-07-29T01:09:31;18.80;99.90
12180;DHT22;6153;51.490;6.586;2022-07-29T01:12:32;18.80;99.90
12180;DHT22;6153;51.490;6.586;2022-07-29T01:15:37;18.80;99.90
12180;DHT22;6153;51.490;6.586;2022-07-29T01:18:42;18.70;99.90
12180;DHT22;6153;51.490;6.586;2022-07-29T01:27:56;18.70;99.90
12180;DHT22;6153;51.490;6.586;2022-07-29T01:30:59;18.70;99.90
12180;DHT22;6153;51.490;6.586;2022-07-29T01:34:04;18.60;99.90
12180;DHT22;6153;51.490;6.586;2022-07-29T01:40:19;18.50;99.90
12180;DHT22;6153;51.490;6.586;2022-07-29T01:43:20;18.50;99.90
12180;DHT22;6153;51.490;6.586;2022-07-29T01:46:25;18.40;99.90
12180;DHT22;6153;51.490;6.586;2022-07-29T01:49:28;18.40;99.90
12180;DHT22;6153;51.490;6.586;2022-07-29T01:52:39;18.40;99.90
12180;DHT22;6153;51.490;6.586;2022-07-29T01:55:44;18.30;99.90
12180;DHT22;6153;51.490;6.586;2022-07-29T01:58:44;18.30;99.90
12180;DHT22;6153;51.490;6.586;2022-07-29T02:01:45;18.40;99.90
12180;DHT22;6153;51.490;6.586;2022-07-29T02:04:47;18.40;99.90
12180;DHT22;6153;51.490;6.586;2022-07-29T02:07:49;18.30;99.90
12180;DHT22;6153;51.490;6.586;2022-07-29T02:10:50;18.30;99.90
12180;DHT22;6153;51.490;6.586;2022-07-29T02:13:52;18.30;99.90
12180;DHT22;6153;51.490;6.586;2022-07-29T02:16:54;18.30;99.90
12180;DHT22;6153;51.490;6.586;2022-07-29T02:19:56;18.30;99.90
12180;DHT22;6153;51.490;6.586;2022-07-29T02:22:58;18.20;99.90
12180;DHT22;6153;51.490;6.586;2022-07-29T02:26:00;18.20;99.90
12180;DHT22;6153;51.490;6.586;2022-07-29T02:29:00;18.00;99.90
12180;DHT22;6153;51.490;6.586;2022-07-29T02:32:02;17.90;99.90
12180;DHT22;6153;51.490;6.586;2022-07-29T02:35:03;17.90;99.90
12180;DHT22;6153;51.490;6.586;2022-07-29T02:38:04;17.90;99.90
12180;DHT22;6153;51.490;6.586;2022-07-29T02:41:26;17.80;99.90
12180;DHT22;6153;51.490;6.586;2022-07-29T02:44:27;17.70;99.90
12180;DHT22;6153;51.490;6.586;2022-07-29T02:47:34;17.60;99.90
12180;DHT22;6153;51.490;6.586;2022-07-29T02:50:41;17.60;99.90
12180;DHT22;6153;51.490;6.586;2022-07-29T02:53:44;17.50;99.90
12180;DHT22;6153;51.490;6.586;2022-07-29T02:56:49;17.40;99.90
12180;DHT22;6153;51.490;6.586;2022-07-29T02:59:53;17.30;99.90
12180;DHT22;6153;51.490;6.586;2022-07-29T03:02:58;17.20;99.90
12180;DHT22;6153;51.490;6.586;2022-07-29T03:06:00;17.10;99.90
12180;DHT22;6153;51.490;6.586;2022-07-29T03:09:01;17.10;99.90
12180;DHT22;6153;51.490;6.586;2022-07-29T03:12:02;17.00;99.90
12180;DHT22;6153;51.490;6.586;2022-07-29T03:15:04;16.90;99.90
12180;DHT22;6153;51.490;6.586;2022-07-29T03:18:05;17.00;99.90
12180;DHT22;6153;51.490;6.586;2022-07-29T03:21:06;17.00;99.90
12180;DHT22;6153;51.490;6.586;2022-07-29T03:24:08;17.00;99.90
12180;DHT22;6153;51.490;6.586;2022-07-29T03:27:08;17.10;99.90
12180;DHT22;6153;51.490;6.586;2022-07-29T03:30:09;17.20;99.90
12180;DHT22;6153;51.490;6.586;2022-07-29T03:33:10;17.20;99.90
12180;DHT22;6153;51.490;6.586;2022-07-29T03:36:11;17.30;99.90
12180;DHT22;6153;51.490;6.586;2022-07-29T03:39:12;17.30;99.90
12180;DHT22;6153;51.490;6.586;2022-07-29T03:42:16;17.30;99.90
12180;DHT22;6153;51.490;6.586;2022-07-29T03:45:18;17.40;99.90
12180;DHT22;6153;51.490;6.586;2022-07-29T03:48:19;17.40;99.90
12180;DHT22;6153;51.490;6.586;2022-07-29T03:51:21;17.50;99.90
12180;DHT22;6153;51.490;6.586;2022-07-29T03:54:21;17.50;99.90
12180;DHT22;6153;51.490;6.586;2022-07-29T03:57:23;17.60;99.90
12180;DHT22;6153;51.490;6.586;2022-07-29T04:00:25;17.60;99.90
12180;DHT22;6153;51.490;6.586;2022-07-29T04:03:26;17.60;99.90
12180;DHT22;6153;51.490;6.586;2022-07-29T04:06:27;17.50;99.90
12180;DHT22;6153;51.490;6.586;2022-07-29T04:09:28;17.20;99.90
12180;DHT22;6153;51.490;6.586;2022-07-29T04:12:28;17.20;99.90
12180;DHT22;6153;51.490;6.586;2022-07-29T04:15:29;17.10;99.90
12180;DHT22;6153;51.490;6.586;2022-07-29T04:18:29;17.20;99.90
12180;DHT22;6153;51.490;6.586;2022-07-29T04:21:30;17.20;99.90
12180;DHT22;6153;51.490;6.586;2022-07-29T04:24:30;16.90;99.90
12180;DHT22;6153;51.490;6.586;2022-07-29T04:27:31;16.80;99.90
12180;DHT22;6153;51.490;6.586;2022-07-29T04:30:32;16.70;99.90
12180;DHT22;6153;51.490;6.586;2022-07-29T04:33:33;16.50;99.90
12180;DHT22;6153;51.490;6.586;2022-07-29T04:36:33;16.40;99.90
12180;DHT22;6153;51.490;6.586;2022-07-29T04:39:34;16.30;99.90
12180;DHT22;6153;51.490;6.586;2022-07-29T04:42:34;16.00;99.90
12180;DHT22;6153;51.490;6.586;2022-07-29T04:45:35;15.90;99.90
12180;DHT22;6153;51.490;6.586;2022-07-29T04:48:35;15.80;99.90
12180;DHT22;6153;51.490;6.586;2022-07-29T04:51:36;15.60;99.90
12180;DHT22;6153;51.490;6.586;2022-07-29T04:54:38;15.60;99.90
12180;DHT22;6153;51.490;6.586;2022-07-29T04:57:38;15.40;99.90
12180;DHT22;6153;51.490;6.586;2022-07-29T05:00:39;15.30;99.90
12180;DHT22;6153;51.490;6.586;2022-07-29T05:03:39;15.30;99.90
12180;DHT22;6153;51.490;6.586;2022-07-29T05:06:40;15.30;99.90
12180;DHT22;6153;51.490;6.586;2022-07-29T05:09:40;15.30;99.90
12180;DHT22;6153;51.490;6.586;2022-07-29T05:12:41;15.30;99.90
12180;DHT22;6153;51.490;6.586;2022-07-29T05:15:41;15.30;99.90
12180;DHT22;6153;51.490;6.586;2022-07-29T05:18:42;15.50;99.90
12180;DHT22;6153;51.490;6.586;2022-07-29T05:21:44;15.60;99.90
12180;DHT22;6153;51.490;6.586;2022-07-29T05:24:44;15.70;99.90
12180;DHT22;6153;51.490;6.586;2022-07-29T05:27:45;15.50;99.90
12180;DHT22;6153;51.490;6.586;2022-07-29T05:30:45;15.30;99.90
12180;DHT22;6153;51.490;6.586;2022-07-29T05:33:46;15.20;99.90
12180;DHT22;6153;51.490;6.586;2022-07-29T05:36:46;15.10;99.90
12180;DHT22;6153;51.490;6.586;2022-07-29T05:39:47;15.10;99.90
12180;DHT22;6153;51.490;6.586;2022-07-29T05:42:47;15.10;99.90
12180;DHT22;6153;51.490;6.586;2022-07-29T05:45:48;15.10;99.90
12180;DHT22;6153;51.490;6.586;2022-07-29T05:48:48;15.10;99.90
12180;DHT22;6153;51.490;6.586;2022-07-29T05:51:49;15.10;99.90
12180;DHT22;6153;51.490;6.586;2022-07-29T05:54:49;15.20;99.90
12180;DHT22;6153;51.490;6.586;2022-07-29T05:57:51;15.40;99.90
12180;DHT22;6153;51.490;6.586;2022-07-29T06:00:52;15.60;99.90
12180;DHT22;6153;51.490;6.586;2022-07-29T06:03:53;15.60;99.90
12180;DHT22;6153;51.490;6.586;2022-07-29T06:06:53;15.40;99.90
12180;DHT22;6153;51.490;6.586;2022-07-29T06:09:54;15.40;99.90
12180;DHT22;6153;51.490;6.586;2022-07-29T06:12:54;15.40;99.90
12180;DHT22;6153;51.490;6.586;2022-07-29T06:15:55;15.40;99.90
12180;DHT22;6153;51.490;6.586;2022-07-29T06:18:55;15.30;99.90
12180;DHT22;6153;51.490;6.586;2022-07-29T06:21:56;15.30;99.90
12180;DHT22;6153;51.490;6.586;2022-07-29T06:24:56;15.30;99.90
12180;DHT22;6153;51.490;6.586;2022-07-29T06:27:57;15.50;99.90
12180;DHT22;6153;51.490;6.586;2022-07-29T06:30:58;15.60;99.90
12180;DHT22;6153;51.490;6.586;2022-07-29T06:33:59;15.60;99.90
12180;DHT22;6153;51.490;6.586;2022-07-29T06:36:59;15.50;99.90
12180;DHT22;6153;51.490;6.586;2022-07-29T06:40:00;15.50;99.90
12180;DHT22;6153;51.490;6.586;2022-07-29T06:43:19;15.50;99.90
12180;DHT22;6153;51.490;6.586;2022-07-29T06:46:20;15.50;99.90
12180;DHT22;6153;51.490;6.586;2022-07-29T06:49:21;15.50;99.90
12180;DHT22;6153;51.490;6.586;2022-07-29T06:52:22;15.40;99.90
12180;DHT22;6153;51.490;6.586;2022-07-29T06:55:22;15.50;99.90
12180;DHT22;6153;51.490;6.586;2022-07-29T06:58:23;15.70;99.90
12180;DHT22;6153;51.490;6.586;2022-07-29T07:01:23;15.80;99.90
12180;DHT22;6153;51.490;6.586;2022-07-29T07:04:24;15.90;99.90
12180;DHT22;6153;51.490;6.586;2022-07-29T07:07:24;16.00;99.90
12180;DHT22;6153;51.490;6.586;2022-07-29T07:10:25;16.00;99.90
12180;DHT22;6153;51.490;6.586;2022-07-29T07:13:26;15.90;99.90
12180;DHT22;6153;51.490;6.586;2022-07-29T07:16:28;15.90;99.90
12180;DHT22;6153;51.490;6.586;2022-07-29T07:19:28;15.80;99.90
12180;DHT22;6153;51.490;6.586;2022-07-29T07:22:29;15.70;99.90
12180;DHT22;6153;51.490;6.586;2022-07-29T07:25:30;15.60;99.90
12180;DHT22;6153;51.490;6.586;2022-07-29T07:28:30;15.50;99.90
12180;DHT22;6153;51.490;6.586;2022-07-29T07:31:31;15.60;99.90
12180;DHT22;6153;51.490;6.586;2022-07-29T07:34:31;15.70;99.90
12180;DHT22;6153;51.490;6.586;2022-07-29T07:37:32;15.70;99.90
12180;DHT22;6153;51.490;6.586;2022-07-29T07:40:33;15.80;99.90
12180;DHT22;6153;51.490;6.586;2022-07-29T07:43:33;15.90;99.90
12180;DHT22;6153;51.490;6.586;2022-07-29T07:46:34;15.90;99.90
12180;DHT22;6153;51.490;6.586;2022-07-29T07:49:34;15.90;99.90
12180;DHT22;6153;51.490;6.586;2022-07-29T07:52:37;15.90;99.90
12180;DHT22;6153;51.490;6.586;2022-07-29T07:55:45;15.90;99.90
12180;DHT22;6153;51.490;6.586;2022-07-29T07:58:46;15.90;99.90
12180;DHT22;6153;51.490;6.586;2022-07-29T08:01:46;15.70;99.90
12180;DHT22;6153;51.490;6.586;2022-07-29T08:04:47;15.70;99.90
12180;DHT22;6153;51.490;6.586;2022-07-29T08:07:47;15.70;99.90
12180;DHT22;6153;51.490;6.586;2022-07-29T08:10:48;15.70;99.90
12180;DHT22;6153;51.490;6.586;2022-07-29T08:13:58;15.80;99.90
12180;DHT22;6153;51.490;6.586;2022-07-29T08:17:01;15.80;99.90
12180;DHT22;6153;51.490;6.586;2022-07-29T08:20:02;16.00;99.90
12180;DHT22;6153;51.490;6.586;2022-07-29T08:23:03;16.00;99.90
12180;DHT22;6153;51.490;6.586;2022-07-29T08:26:05;16.00;99.90
12180;DHT22;6153;51.490;6.586;2022-07-29T08:29:06;15.80;99.90
12180;DHT22;6153;51.490;6.586;2022-07-29T08:32:06;15.70;99.90
12180;DHT22;6153;51.490;6.586;2022-07-29T08:35:07;15.60;99.90
12180;DHT22;6153;51.490;6.586;2022-07-29T08:38:07;15.50;99.90
12180;DHT22;6153;51.490;6.586;2022-07-29T08:41:08;15.60;99.90
12180;DHT22;6153;51.490;6.586;2022-07-29T08:44:09;15.60;99.90
12180;DHT22;6153;51.490;6.586;2022-07-29T08:47:09;15.60;99.90
12180;DHT22;6153;51.490;6.586;2022-07-29T08:50:10;15.70;99.90
12180;DHT22;6153;51.490;6.586;2022-07-29T08:53:11;15.80;99.90
12180;DHT22;6153;51.490;6.586;2022-07-29T08:56:13;15.90;99.90
12180;DHT22;6153;51.490;6.586;2022-07-29T08:59:14;16.00;99.90
12180;DHT22;6153;51.490;6.586;2022-07-29T09:02:22;16.10;99.90
12180;DHT22;6153;51.490;6.586;2022-07-29T09:05:23;16.20;99.90
12180;DHT22;6153;51.490;6.586;2022-07-29T09:08:24;16.50;99.90
12180;DHT22;6153;51.490;6.586;2022-07-29T09:11:25;16.70;99.90
12180;DHT22;6153;51.490;6.586;2022-07-29T09:14:26;16.80;99.90
12180;DHT22;6153;51.490;6.586;2022-07-29T09:17:39;17.00;99.90
12180;DHT22;6153;51.490;6.586;2022-07-29T09:20:40;17.40;99.90
12180;DHT22;6153;51.490;6.586;2022-07-29T09:24:11;17.70;99.90
12180;DHT22;6153;51.490;6.586;2022-07-29T09:30:19;17.50;99.90
12180;DHT22;6153;51.490;6.586;2022-07-29T09:33:23;17.50;99.90
12180;DHT22;6153;51.490;6.586;2022-07-29T09:36:23;17.70;99.90
12180;DHT22;6153;51.490;6.586;2022-07-29T09:42:28;17.90;99.90
12180;DHT22;6153;51.490;6.586;2022-07-29T09:45:30;18.10;99.90
12180;DHT22;6153;51.490;6.586;2022-07-29T09:48:31;18.30;99.90
12180;DHT22;6153;51.490;6.586;2022-07-29T09:51:32;18.60;99.90
12180;DHT22;6153;51.490;6.586;2022-07-29T09:54:32;18.90;99.90
12180;DHT22;6153;51.490;6.586;2022-07-29T09:57:39;18.90;99.90
12180;DHT22;6153;51.490;6.586;2022-07-29T10:00:41;19.10;99.90
12180;DHT22;6153;51.490;6.586;2022-07-29T10:03:51;19.00;99.90
12180;DHT22;6153;51.490;6.586;2022-07-29T10:06:56;19.00;99.90
12180;DHT22;6153;51.490;6.586;2022-07-29T10:09:57;19.00;99.90
12180;DHT22;6153;51.490;6.586;2022-07-29T10:12:59;19.00;99.90
12180;DHT22;6153;51.490;6.586;2022-07-29T10:16:00;18.80;99.90
12180;DHT22;6153;51.490;6.586;2022-07-29T10:19:00;18.90;99.90
12180;DHT22;6153;51.490;6.586;2022-07-29T10:22:02;18.50;99.90
12180;DHT22;6153;51.490;6.586;2022-07-29T10:25:03;18.50;99.90
12180;DHT22;6153;51.490;6.586;2022-07-29T10:28:05;18.50;99.90
12180;DHT22;6153;51.490;6.586;2022-07-29T10:31:06;18.40;99.90
12180;DHT22;6153;51.490;6.586;2022-07-29T10:34:22;18.30;99.90
12180;DHT22;6153;51.490;6.586;2022-07-29T10:40:51;18.80;99.90
12180;DHT22;6153;51.490;6.586;2022-07-29T10:44:13;19.60;99.90
12180;DHT22;6153;51.490;6.586;2022-07-29T10:50:21;20.10;99.90
12180;DHT22;6153;51.490;6.586;2022-07-29T10:53:21;20.50;99.90
12180;DHT22;6153;51.490;6.586;2022-07-29T10:56:26;20.30;99.90
12180;DHT22;6153;51.490;6.586;2022-07-29T10:59:27;20.90;99.90
12180;DHT22;6153;51.490;6.586;2022-07-29T11:05:50;21.50;99.90
12180;DHT22;6153;51.490;6.586;2022-07-29T11:09:15;21.40;99.90
12180;DHT22;6153;51.490;6.586;2022-07-29T11:15:51;21.90;99.90
12180;DHT22;6153;51.490;6.586;2022-07-29T11:22:11;21.70;99.90
12180;DHT22;6153;51.490;6.586;2022-07-29T11:25:12;21.60;99.90
12180;DHT22;6153;51.490;6.586;2022-07-29T11:28:15;21.90;99.90
12180;DHT22;6153;51.490;6.586;2022-07-29T11:31:31;21.70;99.90
12180;DHT22;6153;51.490;6.586;2022-07-29T11:34:35;21.40;99.90
12180;DHT22;6153;51.490;6.586;2022-07-29T11:37:37;21.90;99.90
12180;DHT22;6153;51.490;6.586;2022-07-29T11:40:37;21.50;99.90
12180;DHT22;6153;51.490;6.586;2022-07-29T11:43:47;21.50;99.90
12180;DHT22;6153;51.490;6.586;2022-07-29T11:46:48;21.40;99.90
12180;DHT22;6153;51.490;6.586;2022-07-29T11:49:50;21.50;99.90
12180;DHT22;6153;51.490;6.586;2022-07-29T11:52:51;21.60;99.90
12180;DHT22;6153;51.490;6.586;2022-07-29T11:55:54;21.60;99.90
12180;DHT22;6153;51.490;6.586;2022-07-29T11:59:05;21.40;99.90
12180;DHT22;6153;51.490;6.586;2022-07-29T12:02:06;21.40;99.90
12180;DHT22;6153;51.490;6.586;2022-07-29T12:05:07;21.50;99.90
12180;DHT22;6153;51.490;6.586;2022-07-29T12:08:29;21.60;99.90
12180;DHT22;6153;51.490;6.586;2022-07-29T12:11:28;21.70;99.90
12180;DHT22;6153;51.490;6.586;2022-07-29T12:14:29;21.40;99.90
12180;DHT22;6153;51.490;6.586;2022-07-29T12:17:31;21.30;99.90
12180;DHT22;6153;51.490;6.586;2022-07-29T12:20:32;21.40;99.90
12180;DHT22;6153;51.490;6.586;2022-07-29T12:23:34;21.40;99.90
12180;DHT22;6153;51.490;6.586;2022-07-29T12:26:35;21.40;99.90
12180;DHT22;6153;51.490;6.586;2022-07-29T12:29:35;21.40;99.90
12180;DHT22;6153;51.490;6.586;2022-07-29T12:32:40;21.40;99.90
12180;DHT22;6153;51.490;6.586;2022-07-29T12:35:41;21.40;99.90
12180;DHT22;6153;51.490;6.586;2022-07-29T12:38:42;21.60;99.90
12180;DHT22;6153;51.490;6.586;2022-07-29T12:41:43;21.50;99.90
12180;DHT22;6153;51.490;6.586;2022-07-29T12:44:47;21.60;99.90
12180;DHT22;6153;51.490;6.586;2022-07-29T12:47:51;21.60;99.90
12180;DHT22;6153;51.490;6.586;2022-07-29T12:50:59;21.60;99.90
12180;DHT22;6153;51.490;6.586;2022-07-29T12:54:04;21.60;99.90
12180;DHT22;6153;51.490;6.586;2022-07-29T12:57:05;21.60;99.90
12180;DHT22;6153;51.490;6.586;2022-07-29T13:00:06;21.60;99.90
12180;DHT22;6153;51.490;6.586;2022-07-29T13:03:08;21.60;99.90
12180;DHT22;6153;51.490;6.586;2022-07-29T13:06:26;21.50;99.90
12180;DHT22;6153;51.490;6.586;2022-07-29T13:09:40;21.50;99.90
12180;DHT22;6153;51.490;6.586;2022-07-29T13:16:06;21.70;99.90
12180;DHT22;6153;51.490;6.586;2022-07-29T13:19:09;21.90;99.90
12180;DHT22;6153;51.490;6.586;2022-07-29T13:22:11;21.90;99.90
12180;DHT22;6153;51.490;6.586;2022-07-29T13:25:11;21.90;99.90
12180;DHT22;6153;51.490;6.586;2022-07-29T13:28:12;22.10;99.90
12180;DHT22;6153;51.490;6.586;2022-07-29T13:31:12;22.20;99.90
12180;DHT22;6153;51.490;6.586;2022-07-29T13:34:13;22.40;99.90
12180;DHT22;6153;51.490;6.586;2022-07-29T13:37:14;22.70;99.90
12180;DHT22;6153;51.490;6.586;2022-07-29T13:40:14;22.90;99.90
12180;DHT22;6153;51.490;6.586;2022-07-29T13:43:15;23.30;99.90
12180;DHT22;6153;51.490;6.586;2022-07-29T13:46:16;23.20;99.90
12180;DHT22;6153;51.490;6.586;2022-07-29T13:49:16;23.30;99.90
12180;DHT22;6153;51.490;6.586;2022-07-29T13:52:17;23.30;99.90
12180;DHT22;6153;51.490;6.586;2022-07-29T13:55:17;23.40;99.90
12180;DHT22;6153;51.490;6.586;2022-07-29T13:58:18;23.60;99.90
12180;DHT22;6153;51.490;6.586;2022-07-29T14:01:19;23.70;99.90
12180;DHT22;6153;51.490;6.586;2022-07-29T14:04:19;23.70;99.90
12180;DHT22;6153;51.490;6.586;2022-07-29T14:07:20;23.70;99.90
12180;DHT22;6153;51.490;6.586;2022-07-29T14:10:20;24.00;99.90
12180;DHT22;6153;51.490;6.586;2022-07-29T14:13:21;24.20;99.90
12180;DHT22;6153;51.490;6.586;2022-07-29T14:16:21;24.60;99.90
12180;DHT22;6153;51.490;6.586;2022-07-29T14:19:22;24.70;99.90
12180;DHT22;6153;51.490;6.586;2022-07-29T14:22:22;24.50;99.90
12180;DHT22;6153;51.490;6.586;2022-07-29T14:25:23;24.40;99.90
12180;DHT22;6153;51.490;6.586;2022-07-29T14:28:23;24.40;99.90
12180;DHT22;6153;51.490;6.586;2022-07-29T14:31:24;24.10;99.90
12180;DHT22;6153;51.490;6.586;2022-07-29T14:34:24;24.70;99.90
12180;DHT22;6153;51.490;6.586;2022-07-29T14:37:25;24.50;99.90
12180;DHT22;6153;51.490;6.586;2022-07-29T14:40:26;24.60;99.90
12180;DHT22;6153;51.490;6.586;2022-07-29T14:43:26;24.90;99.90
12180;DHT22;6153;51.490;6.586;2022-07-29T14:46:27;24.90;99.90
12180;DHT22;6153;51.490;6.586;2022-07-29T14:49:27;24.70;99.90
12180;DHT22;6153;51.490;6.586;2022-07-29T14:52:28;24.90;99.90
12180;DHT22;6153;51.490;6.586;2022-07-29T14:55:28;24.60;99.90
12180;DHT22;6153;51.490;6.586;2022-07-29T14:58:29;24.70;99.90
12180;DHT22;6153;51.490;6.586;2022-07-29T15:01:30;24.90;99.90
12180;DHT22;6153;51.490;6.586;2022-07-29T15:04:30;25.40;99.90
12180;DHT22;6153;51.490;6.586;2022-07-29T15:07:31;25.10;99.90
12180;DHT22;6153;51.490;6.586;2022-07-29T15:10:32;25.00;99.90
12180;DHT22;6153;51.490;6.586;2022-07-29T15:13:33;25.50;99.90
12180;DHT22;6153;51.490;6.586;2022-07-29T15:16:37;25.30;99.90
12180;DHT22;6153;51.490;6.586;2022-07-29T15:19:38;25.30;99.90
12180;DHT22;6153;51.490;6.586;2022-07-29T15:22:39;25.30;99.90
12180;DHT22;6153;51.490;6.586;2022-07-29T15:25:41;24.90;99.90
12180;DHT22;6153;51.490;6.586;2022-07-29T15:28:42;25.20;99.90
12180;DHT22;6153;51.490;6.586;2022-07-29T15:31:42;25.00;99.90
12180;DHT22;6153;51.490;6.586;2022-07-29T15:34:43;25.10;99.90
12180;DHT22;6153;51.490;6.586;2022-07-29T15:37:43;25.10;99.90
12180;DHT22;6153;51.490;6.586;2022-07-29T15:40:44;25.30;99.90
12180;DHT22;6153;51.490;6.586;2022-07-29T15:43:45;25.40;99.90
12180;DHT22;6153;51.490;6.586;2022-07-29T15:46:49;25.50;99.90
12180;DHT22;6153;51.490;6.586;2022-07-29T15:50:08;25.60;99.90
12180;DHT22;6153;51.490;6.586;2022-07-29T15:53:13;25.90;99.90
12180;DHT22;6153;51.490;6.586;2022-07-29T15:56:14;26.10;99.90
12180;DHT22;6153;51.490;6.586;2022-07-29T15:59:14;25.90;99.00
12180;DHT22;6153;51.490;6.586;2022-07-29T16:02:15;26.40;99.20
12180;DHT22;6153;51.490;6.586;2022-07-29T16:05:16;26.80;99.20
12180;DHT22;6153;51.490;6.586;2022-07-29T16:08:17;26.50;98.80
12180;DHT22;6153;51.490;6.586;2022-07-29T16:11:17;26.50;98.70
12180;DHT22;6153;51.490;6.586;2022-07-29T16:14:19;26.90;98.30
12180;DHT22;6153;51.490;6.586;2022-07-29T16:17:20;26.30;98.20
12180;DHT22;6153;51.490;6.586;2022-07-29T16:20:21;26.60;98.00
12180;DHT22;6153;51.490;6.586;2022-07-29T16:23:21;26.30;98.50
12180;DHT22;6153;51.490;6.586;2022-07-29T16:26:23;27.10;98.00
12180;DHT22;6153;51.490;6.586;2022-07-29T16:29:23;27.20;97.90
12180;DHT22;6153;51.490;6.586;2022-07-29T16:32:24;27.60;97.80
12180;DHT22;6153;51.490;6.586;2022-07-29T16:35:25;27.80;97.20
12180;DHT22;6153;51.490;6.586;2022-07-29T16:38:25;27.40;97.00
12180;DHT22;6153;51.490;6.586;2022-07-29T16:41:26;27.60;96.90
12180;DHT22;6153;51.490;6.586;2022-07-29T16:44:27;27.80;96.40
12180;DHT22;6153;51.490;6.586;2022-07-29T16:47:28;27.40;96.60
12180;DHT22;6153;51.490;6.586;2022-07-29T16:50:29;28.00;96.50
12180;DHT22;6153;51.490;6.586;2022-07-29T16:53:31;28.20;95.90
12180;DHT22;6153;51.490;6.586;2022-07-29T16:56:31;27.70;96.20
12180;DHT22;6153;51.490;6.586;2022-07-29T16:59:32;28.00;96.30
12180;DHT22;6153;51.490;6.586;2022-07-29T17:02:32;28.00;96.20
12180;DHT22;6153;51.490;6.586;2022-07-29T17:05:33;28.60;95.30
12180;DHT22;6153;51.490;6.586;2022-07-29T17:08:34;28.50;95.00
12180;DHT22;6153;51.490;6.586;2022-07-29T17:11:34;28.10;95.40
12180;DHT22;6153;51.490;6.586;2022-07-29T17:14:35;27.80;95.50
12180;DHT22;6153;51.490;6.586;2022-07-29T17:17:36;27.60;95.50
12180;DHT22;6153;51.490;6.586;2022-07-29T17:20:36;27.40;95.60
12180;DHT22;6153;51.490;6.586;2022-07-29T17:23:37;27.80;95.40
12180;DHT22;6153;51.490;6.586;2022-07-29T17:26:38;27.50;95.50
12180;DHT22;6153;51.490;6.586;2022-07-29T17:29:44;28.00;95.30
12180;DHT22;6153;51.490;6.586;2022-07-29T17:32:45;28.40;94.40
12180;DHT22;6153;51.490;6.586;2022-07-29T17:35:45;27.90;94.50
12180;DHT22;6153;51.490;6.586;2022-07-29T17:39:06;27.90;94.90
12180;DHT22;6153;51.490;6.586;2022-07-29T17:42:09;28.60;94.80
12180;DHT22;6153;51.490;6.586;2022-07-29T17:45:10;28.50;94.50
12180;DHT22;6153;51.490;6.586;2022-07-29T17:48:10;28.30;95.10
12180;DHT22;6153;51.490;6.586;2022-07-29T17:51:11;28.70;94.50
12180;DHT22;6153;51.490;6.586;2022-07-29T17:54:12;28.90;94.40
12180;DHT22;6153;51.490;6.586;2022-07-29T17:57:13;27.90;94.80
12180;DHT22;6153;51.490;6.586;2022-07-29T18:00:13;27.90;95.20
12180;DHT22;6153;51.490;6.586;2022-07-29T18:03:14;28.10;95.40
12180;DHT22;6153;51.490;6.586;2022-07-29T18:06:15;28.80;94.80
12180;DHT22;6153;51.490;6.586;2022-07-29T18:09:15;28.60;95.00
12180;DHT22;6153;51.490;6.586;2022-07-29T18:12:16;28.50;95.30
12180;DHT22;6153;51.490;6.586;2022-07-29T18:15:17;28.60;94.80
12180;DHT22;6153;51.490;6.586;2022-07-29T18:18:18;28.90;94.80
12180;DHT22;6153;51.490;6.586;2022-07-29T18:21:18;28.40;94.60
12180;DHT22;6153;51.490;6.586;2022-07-29T18:24:19;27.50;95.30
12180;DHT22;6153;51.490;6.586;2022-07-29T18:27:19;27.20;95.90
12180;DHT22;6153;51.490;6.586;2022-07-29T18:30:20;26.90;95.90
12180;DHT22;6153;51.490;6.586;2022-07-29T18:33:20;26.90;96.20
12180;DHT22;6153;51.490;6.586;2022-07-29T18:36:21;27.00;96.20
12180;DHT22;6153;51.490;6.586;2022-07-29T18:39:21;26.70;96.50
12180;DHT22;6153;51.490;6.586;2022-07-29T18:42:22;26.40;96.70
12180;DHT22;6153;51.490;6.586;2022-07-29T18:45:22;25.80;97.20
12180;DHT22;6153;51.490;6.586;2022-07-29T18:48:23;25.40;97.70
12180;DHT22;6153;51.490;6.586;2022-07-29T18:51:23;25.40;97.70
12180;DHT22;6153;51.490;6.586;2022-07-29T18:54:24;24.90;97.90
12180;DHT22;6153;51.490;6.586;2022-07-29T18:57:24;24.50;98.70
12180;DHT22;6153;51.490;6.586;2022-07-29T19:00:25;24.40;98.80
12180;DHT22;6153;51.490;6.586;2022-07-29T19:03:26;24.20;99.00
12180;DHT22;6153;51.490;6.586;2022-07-29T19:06:26;24.10;99.50
12180;DHT22;6153;51.490;6.586;2022-07-29T19:09:27;23.80;99.90
12180;DHT22;6153;51.490;6.586;2022-07-29T19:12:28;23.60;99.90
12180;DHT22;6153;51.490;6.586;2022-07-29T19:15:28;23.50;99.90
12180;DHT22;6153;51.490;6.586;2022-07-29T19:18:29;23.40;99.90
12180;DHT22;6153;51.490;6.586;2022-07-29T19:21:29;23.30;99.90
12180;DHT22;6153;51.490;6.586;2022-07-29T19:24:30;23.20;99.90
12180;DHT22;6153;51.490;6.586;2022-07-29T19:27:30;23.00;99.90
12180;DHT22;6153;51.490;6.586;2022-07-29T19:30:31;22.90;99.90
12180;DHT22;6153;51.490;6.586;2022-07-29T19:33:32;22.70;99.90
12180;DHT22;6153;51.490;6.586;2022-07-29T19:36:33;22.50;99.90
12180;DHT22;6153;51.490;6.586;2022-07-29T19:39:34;22.40;99.90
12180;DHT22;6153;51.490;6.586;2022-07-29T19:42:34;22.30;99.90
12180;DHT22;6153;51.490;6.586;2022-07-29T19:45:35;22.10;99.90
12180;DHT22;6153;51.490;6.586;2022-07-29T19:48:35;22.00;99.90
12180;DHT22;6153;51.490;6.586;2022-07-29T19:51:36;21.90;99.90
12180;DHT22;6153;51.490;6.586;2022-07-29T19:54:36;21.70;99.90
12180;DHT22;6153;51.490;6.586;2022-07-29T19:57:37;21.60;99.90
12180;DHT22;6153;51.490;6.586;2022-07-29T20:00:37;21.60;99.90